createdAt,value
2022-08-29T00:00:17.933Z,1.73
2022-08-29T00:02:48.878Z,1.83
2022-08-29T00:05:16.128Z,2.37
2022-08-29T00:07:42.807Z,2.20
2022-08-29T00:10:09.983Z,1.87
2022-08-29T00:12:37.372Z,2.53
2022-08-29T00:15:05.945Z,2.23
2022-08-29T00:17:32.660Z,1.80
2022-08-29T00:19:59.313Z,1.97
2022-08-29T00:22:25.957Z,2.07
2022-08-29T00:24:52.601Z,2.03
2022-08-29T00:27:19.273Z,2.20
2022-08-29T00:29:45.931Z,2.27
2022-08-29T00:32:13.373Z,2.20
2022-08-29T00:34:40.478Z,2.53
2022-08-29T00:37:07.534Z,2.37
2022-08-29T00:39:37.322Z,1.97
2022-08-29T00:42:05.367Z,2.60
2022-08-29T00:44:32.073Z,2.20
2022-08-29T00:47:02.115Z,2.20
2022-08-29T00:49:41.257Z,2.30
2022-08-29T00:52:16.886Z,2.13
2022-08-29T00:54:44.797Z,2.27
2022-08-29T00:57:12.820Z,2.03
2022-08-29T00:59:40.123Z,2.10
2022-08-29T01:02:08.108Z,2.30
2022-08-29T01:04:34.948Z,2.40
2022-08-29T01:07:01.660Z,2.17
2022-08-29T01:09:29.076Z,2.63
2022-08-29T01:12:14.393Z,2.30
2022-08-29T01:14:42.035Z,2.40
2022-08-29T01:17:09.464Z,2.40
2022-08-29T01:19:45.094Z,2.13
2022-08-29T01:22:30.689Z,2.30
2022-08-29T01:24:57.874Z,2.27
2022-08-29T01:27:27.205Z,2.20
2022-08-29T01:29:53.826Z,2.43
2022-08-29T01:32:20.486Z,2.37
2022-08-29T01:34:47.119Z,2.30
2022-08-29T01:37:15.385Z,2.60
2022-08-29T01:39:43.420Z,2.30
2022-08-29T01:42:16.413Z,2.33
2022-08-29T01:44:48.084Z,2.33
2022-08-29T01:47:15.173Z,2.10
2022-08-29T01:49:42.251Z,2.10
2022-08-29T01:52:09.164Z,2.50
2022-08-29T01:54:35.905Z,2.23
2022-08-29T01:57:02.603Z,2.30
2022-08-29T01:59:30.288Z,2.37
2022-08-29T02:02:09.275Z,2.37
2022-08-29T02:04:36.115Z,2.40
2022-08-29T02:07:03.221Z,2.10
2022-08-29T02:09:29.897Z,1.90
2022-08-29T02:11:58.223Z,2.10
2022-08-29T02:14:25.351Z,2.17
2022-08-29T02:16:52.016Z,2.10
2022-08-29T02:19:19.537Z,2.00
2022-08-29T02:21:46.303Z,2.10
2022-08-29T02:24:28.398Z,2.00
2022-08-29T02:26:56.067Z,2.10
2022-08-29T02:29:23.236Z,2.77
2022-08-29T02:31:49.967Z,2.33
2022-08-29T02:34:17.291Z,2.20
2022-08-29T02:36:44.075Z,1.97
2022-08-29T02:39:12.085Z,2.33
2022-08-29T02:41:38.877Z,2.40
2022-08-29T02:44:05.700Z,2.13
2022-08-29T02:46:32.435Z,2.30
2022-08-29T02:49:00.443Z,2.23
2022-08-29T02:51:29.183Z,2.10
2022-08-29T02:53:56.223Z,2.50
2022-08-29T02:56:22.878Z,2.10
2022-08-29T02:58:52.700Z,2.23
2022-08-29T03:01:20.676Z,2.20
2022-08-29T03:03:47.789Z,2.40
2022-08-29T03:06:14.531Z,2.43
2022-08-29T03:08:41.172Z,2.30
2022-08-29T03:11:08.411Z,2.10
2022-08-29T03:13:35.386Z,2.27
2022-08-29T03:16:04.816Z,2.20
2022-08-29T03:18:31.916Z,2.10
2022-08-29T03:20:59.582Z,2.50
2022-08-29T03:23:26.201Z,2.70
2022-08-29T03:25:52.875Z,2.50
2022-08-29T03:28:19.487Z,3.17
2022-08-29T03:30:47.452Z,2.57
2022-08-29T03:33:14.055Z,2.53
2022-08-29T03:35:40.765Z,2.60
2022-08-29T03:38:07.460Z,2.70
2022-08-29T03:40:34.963Z,2.93
2022-08-29T03:43:03.430Z,3.00
2022-08-29T03:45:30.454Z,2.70
2022-08-29T03:47:57.173Z,2.93
2022-08-29T03:50:24.574Z,3.00
2022-08-29T03:52:51.561Z,3.03
2022-08-29T03:55:19.623Z,2.70
2022-08-29T03:57:46.372Z,2.67
2022-08-29T04:00:16.382Z,2.80
2022-08-29T04:02:44.258Z,3.20
2022-08-29T04:05:11.156Z,2.77
2022-08-29T04:07:43.028Z,3.07
2022-08-29T04:10:10.601Z,2.90
2022-08-29T04:12:37.559Z,2.50
2022-08-29T04:15:05.932Z,3.07
2022-08-29T04:17:32.919Z,2.70
2022-08-29T04:19:59.735Z,2.93
2022-08-29T04:22:26.964Z,2.90
2022-08-29T04:24:53.806Z,2.73
2022-08-29T04:27:20.551Z,2.87
2022-08-29T04:29:48.626Z,2.97
2022-08-29T04:32:16.365Z,3.63
2022-08-29T04:34:43.072Z,3.47
2022-08-29T04:37:09.774Z,3.70
2022-08-29T04:39:36.416Z,3.60
2022-08-29T04:42:03.108Z,3.23
2022-08-29T04:44:29.729Z,3.63
2022-08-29T04:46:56.419Z,6.03
2022-08-29T04:49:23.515Z,5.50
2022-08-29T04:51:52.028Z,4.30
2022-08-29T04:54:18.668Z,3.77
2022-08-29T04:56:47.227Z,3.10
2022-08-29T04:59:14.677Z,3.50
2022-08-29T05:01:42.413Z,3.50
2022-08-29T05:04:14.155Z,2.80
2022-08-29T05:06:41.382Z,3.30
2022-08-29T05:09:08.165Z,3.20
2022-08-29T05:11:34.883Z,3.30
2022-08-29T05:14:02.683Z,3.30
2022-08-29T05:16:30.354Z,3.87
2022-08-29T05:18:57.895Z,3.80
2022-08-29T05:21:27.283Z,2.80
2022-08-29T05:23:55.262Z,3.03
2022-08-29T05:26:22.012Z,2.60
2022-08-29T05:28:48.861Z,3.20
2022-08-29T05:31:15.805Z,3.37
2022-08-29T05:33:42.702Z,3.10
2022-08-29T05:36:10.181Z,2.83
2022-08-29T05:38:37.036Z,3.33
2022-08-29T05:41:03.660Z,3.33
2022-08-29T05:43:30.269Z,3.10
2022-08-29T05:46:02.243Z,3.33
2022-08-29T05:48:29.583Z,3.10
2022-08-29T05:50:56.448Z,2.97
2022-08-29T05:53:23.105Z,3.10
2022-08-29T05:55:50.002Z,2.67
2022-08-29T05:58:16.871Z,3.03
2022-08-29T06:00:44.518Z,3.10
2022-08-29T06:03:11.783Z,2.77
2022-08-29T06:05:39.282Z,3.40
2022-08-29T06:08:06.310Z,3.13
2022-08-29T06:10:33.168Z,3.53
2022-08-29T06:13:00.284Z,3.27
2022-08-29T06:15:28.618Z,3.50
2022-08-29T06:17:55.524Z,3.70
2022-08-29T06:20:22.263Z,3.13
2022-08-29T06:22:48.986Z,2.60
2022-08-29T06:25:37.860Z,2.60
2022-08-29T06:28:02.613Z,2.80
2022-08-29T06:30:30.967Z,2.77
2022-08-29T06:32:57.620Z,2.63
2022-08-29T06:35:24.270Z,2.80
2022-08-29T06:37:51.932Z,3.03
2022-08-29T06:40:18.613Z,2.97
2022-08-29T06:42:45.283Z,2.53
2022-08-29T06:45:11.881Z,3.00
2022-08-29T06:47:38.463Z,2.77
2022-08-29T06:50:06.320Z,2.70
2022-08-29T06:52:32.955Z,2.93
2022-08-29T06:55:02.819Z,3.20
2022-08-29T06:57:29.521Z,2.70
2022-08-29T06:59:56.134Z,2.13
2022-08-29T07:02:22.821Z,2.37
2022-08-29T07:04:49.557Z,2.20
2022-08-29T07:07:16.237Z,2.23
2022-08-29T07:09:44.250Z,2.50
2022-08-29T07:12:11.216Z,2.40
2022-08-29T07:14:37.963Z,2.20
2022-08-29T07:17:05.110Z,2.27
2022-08-29T07:19:31.778Z,2.87
2022-08-29T07:21:59.007Z,2.47
2022-08-29T07:24:26.040Z,2.50
2022-08-29T07:26:52.701Z,2.47
2022-08-29T07:29:20.768Z,3.07
2022-08-29T07:31:47.697Z,2.70
2022-08-29T07:34:14.706Z,2.50
2022-08-29T07:36:41.328Z,2.50
2022-08-29T07:39:10.335Z,2.80
2022-08-29T07:41:38.311Z,2.80
2022-08-29T07:44:05.072Z,2.37
2022-08-29T07:46:31.863Z,2.77
2022-08-29T07:48:59.559Z,2.90
2022-08-29T07:51:27.065Z,2.60
2022-08-29T07:53:54.422Z,2.57
2022-08-29T07:56:24.605Z,2.63
2022-08-29T07:58:51.560Z,2.47
2022-08-29T08:01:21.581Z,2.30
2022-08-29T08:03:49.091Z,2.40
2022-08-29T08:06:16.183Z,2.63
2022-08-29T08:08:43.196Z,2.67
2022-08-29T08:11:10.056Z,2.60
2022-08-29T08:13:37.510Z,2.30
2022-08-29T08:16:05.713Z,2.40
2022-08-29T08:18:32.506Z,2.30
2022-08-29T08:20:59.169Z,2.23
2022-08-29T08:23:25.840Z,2.27
2022-08-29T08:25:52.479Z,1.73
2022-08-29T08:28:19.150Z,1.60
2022-08-29T08:30:45.885Z,1.97
2022-08-29T08:33:12.664Z,2.30
2022-08-29T08:35:41.963Z,2.20
2022-08-29T08:38:09.301Z,1.93
2022-08-29T08:40:40.145Z,1.70
2022-08-29T08:43:08.515Z,1.90
2022-08-29T08:45:40.006Z,1.97
2022-08-29T08:48:09.274Z,1.80
2022-08-29T08:50:42.112Z,1.90
2022-08-29T08:53:14.903Z,2.07
2022-08-29T08:55:43.434Z,1.90
2022-08-29T08:58:13.919Z,1.80
2022-08-29T09:00:50.715Z,2.23
2022-08-29T09:03:25.163Z,2.10
2022-08-29T09:06:07.160Z,1.87
2022-08-29T09:08:43.710Z,1.97
2022-08-29T09:11:28.189Z,1.80
2022-08-29T09:13:54.906Z,1.90
2022-08-29T09:16:25.128Z,2.00
2022-08-29T09:18:53.989Z,2.23
2022-08-29T09:21:41.045Z,2.00
2022-08-29T09:24:10.275Z,2.10
2022-08-29T09:26:36.958Z,1.80
2022-08-29T09:29:03.780Z,1.70
2022-08-29T09:31:34.510Z,2.10
2022-08-29T09:34:05.931Z,1.87
2022-08-29T09:36:46.018Z,1.80
2022-08-29T09:39:16.898Z,2.33
2022-08-29T09:41:44.317Z,1.70
2022-08-29T09:44:18.640Z,1.60
2022-08-29T09:46:45.334Z,1.90
2022-08-29T09:49:14.983Z,2.30
2022-08-29T09:51:44.025Z,1.87
2022-08-29T09:54:12.501Z,1.90
2022-08-29T09:56:48.268Z,1.80
2022-08-29T09:59:23.048Z,2.20
2022-08-29T10:01:49.948Z,2.10
2022-08-29T10:04:35.815Z,2.00
2022-08-29T10:07:37.471Z,2.17
2022-08-29T10:10:15.437Z,1.77
2022-08-29T10:12:51.048Z,2.20
2022-08-29T10:15:47.012Z,1.97
2022-08-29T10:18:24.044Z,1.97
2022-08-29T10:20:52.566Z,1.60
2022-08-29T10:23:21.958Z,1.87
2022-08-29T10:25:48.765Z,1.93
2022-08-29T10:28:15.332Z,2.00
2022-08-29T10:30:45.083Z,1.60
2022-08-29T10:33:17.614Z,1.67
2022-08-29T10:35:54.354Z,1.60
2022-08-29T10:38:33.450Z,1.63
2022-08-29T10:41:03.153Z,2.23
2022-08-29T10:43:29.784Z,2.10
2022-08-29T10:45:56.497Z,1.87
2022-08-29T10:48:31.422Z,1.70
2022-08-29T10:51:18.068Z,1.57
2022-08-29T10:53:52.489Z,1.63
2022-08-29T10:56:24.943Z,1.80
2022-08-29T10:59:00.587Z,1.70
2022-08-29T11:01:36.505Z,1.70
2022-08-29T11:04:06.156Z,1.80
2022-08-29T11:09:25.506Z,1.67
2022-08-29T11:12:17.797Z,1.87
2022-08-29T11:14:44.916Z,1.60
2022-08-29T11:17:13.058Z,2.40
2022-08-29T11:19:45.892Z,2.03
2022-08-29T11:22:22.048Z,1.67
2022-08-29T11:24:54.680Z,2.03
2022-08-29T11:27:36.452Z,2.00
2022-08-29T11:30:10.596Z,2.17
2022-08-29T11:32:51.006Z,2.00
2022-08-29T11:35:23.488Z,3.15
2022-08-29T11:38:13.106Z,2.03
2022-08-29T11:40:47.694Z,2.37
2022-08-29T11:43:19.548Z,1.60
2022-08-29T11:45:55.053Z,2.20
2022-08-29T11:48:36.561Z,1.48
2022-08-29T11:51:35.956Z,1.95
2022-08-29T11:54:24.958Z,1.98
2022-08-29T11:57:00.620Z,2.00
2022-08-29T11:59:59.450Z,2.67
2022-08-29T12:02:32.018Z,1.80
2022-08-29T12:04:59.832Z,1.77
2022-08-29T12:07:32.988Z,1.83
2022-08-29T12:10:00.012Z,1.70
2022-08-29T12:12:49.348Z,1.90
2022-08-29T12:15:27.038Z,1.77
2022-08-29T12:18:15.538Z,1.70
2022-08-29T12:20:46.767Z,2.10
2022-08-29T12:23:25.011Z,2.20
2022-08-29T12:29:10.798Z,2.73
2022-08-29T12:31:37.471Z,2.13
2022-08-29T12:34:04.815Z,2.50
2022-08-29T12:36:34.556Z,1.90
2022-08-29T12:39:13.403Z,2.00
2022-08-29T12:42:05.297Z,2.00
2022-08-29T12:44:40.018Z,2.30
2022-08-29T12:47:11.916Z,2.10
2022-08-29T12:49:38.533Z,1.83
2022-08-29T12:52:07.427Z,2.63
2022-08-29T12:54:36.539Z,2.00
2022-08-29T12:57:05.960Z,1.97
2022-08-29T12:59:33.837Z,1.90
2022-08-29T13:02:00.696Z,2.13
2022-08-29T13:04:30.960Z,2.00
2022-08-29T13:07:03.941Z,2.10
2022-08-29T13:09:31.252Z,1.80
2022-08-29T13:12:17.516Z,2.00
2022-08-29T13:14:55.809Z,2.53
2022-08-29T13:17:41.941Z,2.37
2022-08-29T13:20:27.674Z,2.20
2022-08-29T13:23:09.689Z,2.40
2022-08-29T13:25:42.754Z,2.10
2022-08-29T13:28:13.529Z,2.27
2022-08-29T13:30:41.025Z,1.70
2022-08-29T13:33:34.609Z,2.03
2022-08-29T13:36:22.824Z,2.40
2022-08-29T13:39:09.436Z,2.53
2022-08-29T13:41:36.304Z,2.77
2022-08-29T13:44:03.302Z,2.00
2022-08-29T13:46:30.698Z,2.20
2022-08-29T13:48:58.980Z,2.00
2022-08-29T13:51:25.976Z,2.10
2022-08-29T13:53:53.635Z,2.20
2022-08-29T13:56:23.693Z,2.10
2022-08-29T13:58:51.331Z,2.20
2022-08-29T14:01:30.404Z,1.90
2022-08-29T14:03:59.316Z,2.07
2022-08-29T14:06:35.149Z,2.10
2022-08-29T14:09:03.062Z,2.03
2022-08-29T14:11:29.744Z,2.40
2022-08-29T14:13:56.389Z,2.00
2022-08-29T14:16:25.142Z,2.20
2022-08-29T14:18:54.052Z,2.50
2022-08-29T14:21:20.900Z,2.30
2022-08-29T14:23:48.576Z,1.97
2022-08-29T14:26:15.466Z,2.00
2022-08-29T14:28:48.000Z,2.30
2022-08-29T14:31:15.158Z,2.30
2022-08-29T14:33:46.404Z,2.27
2022-08-29T14:36:18.858Z,2.47
2022-08-29T14:38:45.520Z,2.03
2022-08-29T14:41:12.215Z,2.60
2022-08-29T14:43:40.037Z,1.80
2022-08-29T14:46:07.095Z,2.17
2022-08-29T14:48:33.953Z,2.50
2022-08-29T14:51:00.621Z,2.47
2022-08-29T14:53:27.547Z,2.50
2022-08-29T14:55:55.742Z,1.97
2022-08-29T14:58:22.916Z,2.27
2022-08-29T15:00:50.474Z,2.13
2022-08-29T15:03:20.945Z,1.97
2022-08-29T15:05:48.692Z,2.20
2022-08-29T15:08:17.612Z,2.77
2022-08-29T15:10:44.304Z,2.27
2022-08-29T15:13:11.197Z,2.20
2022-08-29T15:15:37.909Z,2.00
2022-08-29T15:18:05.904Z,2.27
2022-08-29T15:20:37.648Z,2.20
2022-08-29T15:23:05.909Z,2.30
2022-08-29T15:25:32.876Z,2.40
2022-08-29T15:27:59.552Z,2.10
2022-08-29T15:30:26.347Z,2.30
2022-08-29T15:32:53.393Z,2.37
2022-08-29T15:35:20.168Z,2.30
2022-08-29T15:37:46.831Z,2.13
2022-08-29T15:40:13.940Z,2.20
2022-08-29T15:42:40.810Z,2.10
2022-08-29T15:45:08.472Z,2.20
2022-08-29T15:47:35.424Z,2.70
2022-08-29T15:50:02.729Z,2.27
2022-08-29T15:52:31.196Z,2.07
2022-08-29T15:54:58.103Z,3.50
2022-08-29T15:57:25.485Z,2.20
2022-08-29T15:59:59.953Z,2.13
2022-08-29T16:02:27.285Z,2.17
2022-08-29T16:04:57.499Z,1.90
2022-08-29T16:07:29.358Z,2.67
2022-08-29T16:09:56.705Z,2.20
2022-08-29T16:12:23.365Z,2.17
2022-08-29T16:15:09.500Z,2.00
2022-08-29T16:17:37.340Z,2.07
2022-08-29T16:20:04.674Z,2.47
2022-08-29T16:22:33.945Z,2.53
2022-08-29T16:25:01.062Z,2.50
2022-08-29T16:27:28.685Z,2.40
2022-08-29T16:29:57.312Z,2.33
2022-08-29T16:32:24.602Z,2.40
2022-08-29T16:34:51.380Z,2.50
2022-08-29T16:37:18.925Z,2.40
2022-08-29T16:39:45.805Z,2.87
2022-08-29T16:42:12.475Z,2.60
2022-08-29T16:44:39.332Z,3.07
2022-08-29T16:47:06.176Z,2.30
2022-08-29T16:49:33.922Z,2.50
2022-08-29T16:52:00.706Z,2.37
2022-08-29T16:54:27.604Z,2.50
2022-08-29T16:56:54.301Z,2.57
2022-08-29T16:59:21.144Z,2.70
2022-08-29T17:01:49.507Z,2.80
2022-08-29T17:04:18.594Z,2.60
2022-08-29T17:06:48.681Z,2.67
2022-08-29T17:09:16.366Z,2.70
2022-08-29T17:11:43.489Z,2.73
2022-08-29T17:14:10.316Z,2.53
2022-08-29T17:16:37.816Z,3.27
2022-08-29T17:19:04.992Z,2.73
2022-08-29T17:21:32.025Z,3.50
2022-08-29T17:23:58.699Z,2.87
2022-08-29T17:26:25.775Z,3.20
2022-08-29T17:28:52.758Z,2.73
2022-08-29T17:31:19.607Z,2.80
2022-08-29T17:33:46.623Z,2.70
2022-08-29T17:36:13.893Z,2.77
2022-08-29T17:38:41.983Z,2.83
2022-08-29T17:41:14.979Z,2.90
2022-08-29T17:43:44.206Z,2.73
2022-08-29T17:46:11.034Z,3.20
2022-08-29T17:48:37.723Z,2.70
2022-08-29T17:51:04.571Z,2.73
2022-08-29T17:53:32.526Z,2.70
2022-08-29T17:56:09.616Z,2.50
2022-08-29T17:58:36.253Z,2.67
2022-08-29T18:01:02.965Z,2.83
2022-08-29T18:03:29.734Z,2.70
2022-08-29T18:05:56.348Z,3.23
2022-08-29T18:08:23.029Z,2.90
2022-08-29T18:10:49.757Z,2.90
2022-08-29T18:13:19.811Z,3.60
2022-08-29T18:15:50.662Z,3.17
2022-08-29T18:18:20.052Z,3.40
2022-08-29T18:20:47.161Z,3.07
2022-08-29T18:23:13.837Z,3.20
2022-08-29T18:25:40.456Z,3.17
2022-08-29T18:28:08.385Z,3.20
2022-08-29T18:30:35.551Z,3.00
2022-08-29T18:33:02.399Z,3.10
2022-08-29T18:35:29.389Z,2.73
2022-08-29T18:37:56.265Z,2.60
2022-08-29T18:40:23.298Z,2.77
2022-08-29T18:42:50.038Z,2.83
2022-08-29T18:45:16.677Z,2.87
2022-08-29T18:47:43.328Z,2.80
2022-08-29T18:50:29.326Z,3.00
2022-08-29T18:52:56.700Z,2.93
2022-08-29T18:55:24.057Z,3.43
2022-08-29T18:57:51.870Z,3.00
2022-08-29T19:00:18.913Z,2.80
2022-08-29T19:02:45.847Z,2.97
2022-08-29T19:05:12.594Z,3.30
2022-08-29T19:07:39.546Z,3.43
2022-08-29T19:10:07.020Z,3.13
2022-08-29T19:12:33.843Z,2.63
2022-08-29T19:15:00.554Z,3.10
2022-08-29T19:17:27.234Z,3.03
2022-08-29T19:20:12.621Z,2.90
2022-08-29T19:22:39.493Z,3.37
2022-08-29T19:25:08.763Z,3.27
2022-08-29T19:27:44.401Z,3.53
2022-08-29T19:30:12.281Z,3.20
2022-08-29T19:32:39.326Z,3.07
2022-08-29T19:35:06.116Z,3.37
2022-08-29T19:37:33.193Z,3.40
2022-08-29T19:39:59.954Z,2.90
2022-08-29T19:42:28.146Z,3.30
2022-08-29T19:44:55.037Z,3.60
2022-08-29T19:47:23.278Z,3.37
2022-08-29T19:49:50.716Z,3.13
2022-08-29T19:52:17.680Z,3.90
2022-08-29T19:54:44.455Z,3.30
2022-08-29T19:57:14.577Z,3.70
2022-08-29T19:59:42.306Z,3.83
2022-08-29T20:02:10.849Z,3.43
2022-08-29T20:04:37.980Z,2.80
2022-08-29T20:07:05.470Z,3.37
2022-08-29T20:09:32.297Z,3.77
2022-08-29T20:11:59.009Z,3.40
2022-08-29T20:14:25.653Z,3.40
2022-08-29T20:16:52.336Z,3.23
2022-08-29T20:19:21.359Z,3.57
2022-08-29T20:21:48.805Z,3.67
2022-08-29T20:24:16.530Z,3.60
2022-08-29T20:26:44.448Z,3.60
2022-08-29T20:29:11.248Z,3.57
2022-08-29T20:31:38.406Z,2.80
2022-08-29T20:34:05.240Z,3.13
2022-08-29T20:36:50.503Z,3.30
2022-08-29T20:39:18.333Z,3.73
2022-08-29T20:41:49.267Z,3.33
2022-08-29T20:44:18.441Z,3.10
2022-08-29T20:46:45.217Z,3.73
2022-08-29T20:49:12.947Z,3.37
2022-08-29T20:51:39.766Z,3.80
2022-08-29T20:54:06.621Z,3.73
2022-08-29T20:56:33.199Z,3.57
2022-08-29T20:58:59.925Z,3.50
2022-08-29T21:01:26.945Z,3.57
2022-08-29T21:04:12.518Z,3.90
2022-08-29T21:06:39.516Z,3.40
2022-08-29T21:09:06.603Z,3.77
2022-08-29T21:11:33.460Z,3.47
2022-08-29T21:14:00.584Z,3.53
2022-08-29T21:16:28.173Z,3.27
2022-08-29T21:18:55.393Z,3.40
2022-08-29T21:21:24.856Z,3.30
2022-08-29T21:23:52.157Z,3.77
2022-08-29T21:26:18.992Z,3.70
2022-08-29T21:28:47.218Z,3.37
2022-08-29T21:31:14.218Z,4.30
2022-08-29T21:33:43.177Z,3.33
2022-08-29T21:36:10.846Z,3.73
2022-08-29T21:38:37.540Z,3.30
2022-08-29T21:41:04.516Z,3.30
2022-08-29T21:43:31.568Z,3.70
2022-08-29T21:45:58.526Z,3.70
2022-08-29T21:48:25.258Z,3.50
2022-08-29T21:50:55.574Z,3.07
2022-08-29T21:53:22.918Z,3.60
2022-08-29T21:55:49.581Z,3.40
2022-08-29T21:58:16.791Z,3.57
2022-08-29T22:00:43.490Z,3.73
2022-08-29T22:03:13.035Z,3.53
2022-08-29T22:05:43.664Z,3.40
2022-08-29T22:08:10.637Z,3.60
2022-08-29T22:10:41.963Z,3.40
2022-08-29T22:13:09.417Z,3.83
2022-08-29T22:15:54.881Z,3.47
2022-08-29T22:18:22.461Z,3.50
2022-08-29T22:20:54.934Z,3.43
2022-08-29T22:23:22.235Z,3.80
2022-08-29T22:25:48.920Z,3.63
2022-08-29T22:28:15.527Z,3.33
2022-08-29T22:30:42.162Z,3.73
2022-08-29T22:33:09.009Z,3.33
2022-08-29T22:35:42.869Z,3.60
2022-08-29T22:38:09.495Z,3.57
2022-08-29T22:40:36.200Z,3.40
2022-08-29T22:43:03.030Z,3.40
2022-08-29T22:45:29.715Z,3.83
2022-08-29T22:47:56.360Z,3.53
2022-08-29T22:50:26.143Z,3.70
2022-08-29T22:52:56.776Z,3.30
2022-08-29T22:57:49.587Z,3.30
2022-08-29T23:00:17.994Z,3.57
2022-08-29T23:02:45.022Z,3.63
2022-08-29T23:05:11.768Z,3.20
2022-08-29T23:07:38.607Z,3.80
2022-08-29T23:10:06.371Z,2.70
2022-08-29T23:12:36.059Z,3.53
2022-08-29T23:15:07.111Z,3.73
2022-08-29T23:17:33.820Z,3.40
2022-08-29T23:20:00.476Z,3.30
2022-08-29T23:22:27.263Z,3.67
2022-08-29T23:24:58.866Z,3.50
2022-08-29T23:27:27.345Z,3.30
2022-08-29T23:29:54.102Z,3.13
2022-08-29T23:32:20.830Z,3.47
2022-08-29T23:34:47.443Z,3.20
2022-08-29T23:37:14.076Z,3.20
2022-08-29T23:39:40.776Z,3.20
2022-08-29T23:42:07.431Z,3.63
2022-08-29T23:44:34.107Z,3.07
2022-08-29T23:47:00.801Z,3.40
2022-08-29T23:49:27.481Z,3.50
2022-08-29T23:51:54.136Z,3.17
2022-08-29T23:54:20.756Z,3.33
2022-08-29T23:56:47.483Z,3.33
2022-08-29T23:59:34.059Z,3.33
